createdAt,value
2023-09-06T00:02:10.191Z,15.01
2023-09-06T00:05:12.787Z,15.03
2023-09-06T00:08:17.578Z,15.03
2023-09-06T00:11:20.130Z,15.08
2023-09-06T00:14:22.641Z,15.03
2023-09-06T00:17:25.093Z,14.94
2023-09-06T00:20:27.609Z,14.92
2023-09-06T00:23:31.101Z,14.84
2023-09-06T00:26:33.498Z,14.85
2023-09-06T00:29:35.917Z,14.77
2023-09-06T00:32:38.402Z,14.83
2023-09-06T00:35:41.143Z,14.74
2023-09-06T00:38:43.568Z,14.64
2023-09-06T00:41:46.163Z,14.66
2023-09-06T00:44:49.538Z,14.53
2023-09-06T00:47:52.465Z,14.65
2023-09-06T00:50:57.168Z,14.65
2023-09-06T00:54:01.137Z,14.64
2023-09-06T00:57:03.970Z,14.60
2023-09-06T01:00:07.909Z,14.58
2023-09-06T01:03:10.688Z,14.63
2023-09-06T01:06:24.350Z,14.56
2023-09-06T01:09:30.673Z,14.55
2023-09-06T01:12:35.670Z,14.60
2023-09-06T01:15:42.982Z,14.45
2023-09-06T01:18:45.569Z,14.43
2023-09-06T01:21:59.585Z,14.39
2023-09-06T01:25:03.505Z,14.36
2023-09-06T01:28:06.643Z,14.29
2023-09-06T01:31:09.165Z,14.28
2023-09-06T01:34:11.712Z,14.22
2023-09-06T01:37:14.166Z,14.14
2023-09-06T01:40:18.346Z,14.18
2023-09-06T01:43:20.868Z,14.10
2023-09-06T01:46:26.267Z,14.18
2023-09-06T01:49:29.107Z,14.18
2023-09-06T01:52:31.628Z,14.10
2023-09-06T01:55:34.767Z,13.94
2023-09-06T01:58:38.499Z,13.94
2023-09-06T02:01:42.093Z,13.97
2023-09-06T02:04:44.818Z,14.07
2023-09-06T02:07:48.057Z,14.07
2023-09-06T02:10:50.747Z,14.03
2023-09-06T02:13:53.350Z,14.03
2023-09-06T02:16:55.929Z,14.00
2023-09-06T02:20:22.305Z,13.99
2023-09-06T02:23:24.833Z,13.85
2023-09-06T02:26:27.228Z,13.68
2023-09-06T02:29:29.648Z,13.84
2023-09-06T02:32:33.353Z,13.82
2023-09-06T02:35:36.618Z,13.79
2023-09-06T02:38:39.211Z,13.79
2023-09-06T02:41:42.104Z,13.78
2023-09-06T02:44:44.513Z,13.68
2023-09-06T02:47:51.956Z,13.74
2023-09-06T02:50:54.822Z,13.61
2023-09-06T02:53:58.305Z,13.63
2023-09-06T02:57:00.769Z,13.62
2023-09-06T03:00:09.188Z,13.66
2023-09-06T03:03:17.318Z,13.64
2023-09-06T03:06:20.638Z,13.65
2023-09-06T03:09:30.144Z,13.61
2023-09-06T03:12:33.061Z,13.54
2023-09-06T03:15:36.394Z,13.46
2023-09-06T03:18:41.360Z,13.36
2023-09-06T03:21:44.684Z,13.48
2023-09-06T03:24:47.230Z,13.33
2023-09-06T03:27:49.814Z,13.29
2023-09-06T03:30:53.350Z,13.42
2023-09-06T03:33:57.340Z,13.20
2023-09-06T03:36:59.845Z,13.29
2023-09-06T03:40:02.272Z,13.24
2023-09-06T03:43:06.867Z,13.32
2023-09-06T03:46:11.110Z,13.36
2023-09-06T03:49:14.428Z,13.26
2023-09-06T03:52:17.605Z,13.34
2023-09-06T03:55:21.947Z,13.39
2023-09-06T03:58:26.339Z,13.34
2023-09-06T04:01:29.309Z,13.22
2023-09-06T04:04:32.157Z,13.28
2023-09-06T04:07:34.663Z,13.30
2023-09-06T04:10:41.585Z,13.29
2023-09-06T04:13:44.592Z,13.20
2023-09-06T04:16:49.729Z,13.13
2023-09-06T04:19:56.247Z,13.12
2023-09-06T04:23:00.602Z,13.15
2023-09-06T04:26:04.979Z,13.29
2023-09-06T04:29:08.408Z,13.31
2023-09-06T04:32:10.932Z,13.25
2023-09-06T04:35:17.624Z,13.20
2023-09-06T04:38:21.611Z,13.20
2023-09-06T04:41:26.902Z,13.33
2023-09-06T04:44:33.382Z,13.31
2023-09-06T04:47:39.342Z,13.19
2023-09-06T04:50:42.635Z,13.10
2023-09-06T04:53:45.295Z,13.31
2023-09-06T04:56:50.012Z,13.27
2023-09-06T04:59:54.596Z,13.36
2023-09-06T05:02:58.534Z,13.48
2023-09-06T05:06:02.198Z,13.51
2023-09-06T05:09:04.847Z,13.55
2023-09-06T05:12:07.522Z,13.82
2023-09-06T05:15:11.476Z,14.00
2023-09-06T05:18:16.002Z,14.34
2023-09-06T05:21:20.627Z,14.55
2023-09-06T05:24:23.452Z,14.68
2023-09-06T05:27:28.754Z,14.80
2023-09-06T05:30:33.250Z,15.11
2023-09-06T05:33:38.804Z,15.41
2023-09-06T05:36:41.276Z,15.95
2023-09-06T05:39:44.564Z,16.14
2023-09-06T05:42:47.861Z,16.61
2023-09-06T05:45:50.361Z,16.73
2023-09-06T05:48:53.092Z,16.69
2023-09-06T05:51:55.895Z,17.05
2023-09-06T05:54:58.707Z,17.34
2023-09-06T05:58:01.606Z,16.82
2023-09-06T06:01:07.867Z,16.74
2023-09-06T06:04:12.593Z,17.25
2023-09-06T06:07:15.330Z,17.51
2023-09-06T06:10:18.159Z,17.39
2023-09-06T06:13:21.382Z,17.97
2023-09-06T06:16:23.973Z,18.29
2023-09-06T06:19:26.606Z,18.42
2023-09-06T06:22:29.270Z,19.12
2023-09-06T06:25:32.197Z,19.35
2023-09-06T06:28:35.003Z,19.71
2023-09-06T06:31:37.971Z,20.15
2023-09-06T06:34:40.876Z,20.23
2023-09-06T06:37:43.443Z,20.26
2023-09-06T06:40:45.883Z,20.77
2023-09-06T06:43:48.420Z,20.82
2023-09-06T06:46:51.082Z,20.84
2023-09-06T06:49:56.114Z,21.13
2023-09-06T06:52:58.782Z,21.42
2023-09-06T06:56:02.152Z,21.76
2023-09-06T06:59:05.215Z,22.28
2023-09-06T07:02:07.754Z,22.47
2023-09-06T07:05:10.286Z,22.87
2023-09-06T07:08:12.852Z,22.92
2023-09-06T07:11:15.480Z,22.75
2023-09-06T07:14:18.010Z,23.29
2023-09-06T07:17:20.575Z,23.68
2023-09-06T07:20:24.153Z,23.96
2023-09-06T07:23:27.638Z,24.04
2023-09-06T07:26:30.422Z,24.60
2023-09-06T07:29:33.027Z,24.66
2023-09-06T07:32:35.464Z,24.65
2023-09-06T07:35:37.960Z,24.95
2023-09-06T07:38:40.449Z,25.69
2023-09-06T07:41:43.081Z,25.49
2023-09-06T07:44:45.527Z,25.67
2023-09-06T07:47:48.219Z,26.11
2023-09-06T07:50:51.438Z,26.34
2023-09-06T07:53:54.973Z,26.70
2023-09-06T07:56:58.605Z,26.87
2023-09-06T08:00:01.275Z,26.63
2023-09-06T08:03:04.606Z,27.48
2023-09-06T08:06:08.660Z,27.88
2023-09-06T08:09:11.832Z,27.94
2023-09-06T08:12:14.554Z,28.64
2023-09-06T08:15:17.144Z,29.21
2023-09-06T08:18:19.980Z,28.85
2023-09-06T08:21:23.100Z,29.38
2023-09-06T08:24:25.917Z,29.81
2023-09-06T08:27:28.795Z,30.24
2023-09-06T08:30:32.002Z,30.36
2023-09-06T08:33:35.344Z,30.50
2023-09-06T08:36:38.147Z,30.89
2023-09-06T08:39:40.744Z,30.95
2023-09-06T08:42:45.810Z,31.25
2023-09-06T08:45:51.538Z,31.28
2023-09-06T08:48:57.240Z,31.29
2023-09-06T08:52:01.910Z,31.33
2023-09-06T08:55:06.246Z,30.90
2023-09-06T08:58:08.697Z,31.37
2023-09-06T09:01:11.528Z,31.77
2023-09-06T09:04:14.598Z,31.30
2023-09-06T09:07:19.435Z,30.68
2023-09-06T09:10:23.084Z,31.74
2023-09-06T09:13:25.554Z,32.12
2023-09-06T09:16:28.095Z,32.14
2023-09-06T09:19:30.670Z,32.38
2023-09-06T09:22:39.132Z,32.53
2023-09-06T09:25:49.782Z,32.42
2023-09-06T09:28:52.280Z,32.89
2023-09-06T09:32:01.371Z,31.22
2023-09-06T09:35:05.466Z,31.69
2023-09-06T09:38:14.260Z,31.89
2023-09-06T09:41:17.104Z,31.47
2023-09-06T09:44:20.942Z,30.73
2023-09-06T09:47:47.407Z,32.16
2023-09-06T09:50:48.724Z,33.00
2023-09-06T09:53:51.197Z,33.49
2023-09-06T09:57:07.980Z,32.68
2023-09-06T10:00:13.710Z,33.08
2023-09-06T10:03:17.715Z,33.22
2023-09-06T10:06:21.284Z,33.77
2023-09-06T10:09:23.942Z,31.95
2023-09-06T10:12:28.090Z,31.13
2023-09-06T10:15:31.000Z,32.58
2023-09-06T10:18:34.056Z,33.37
2023-09-06T10:21:37.233Z,32.37
2023-09-06T10:24:41.469Z,32.82
2023-09-06T10:27:47.769Z,32.99
2023-09-06T10:30:59.252Z,33.59
2023-09-06T10:34:01.847Z,33.86
2023-09-06T10:37:07.555Z,33.14
2023-09-06T10:40:13.706Z,33.03
2023-09-06T10:43:45.546Z,31.67
2023-09-06T10:46:49.773Z,33.04
2023-09-06T10:50:11.259Z,31.78
2023-09-06T10:53:19.182Z,31.31
2023-09-06T10:56:29.372Z,32.29
2023-09-06T10:59:32.650Z,32.20
2023-09-06T11:02:39.091Z,31.84
2023-09-06T11:05:44.328Z,31.38
2023-09-06T11:08:47.449Z,31.86
2023-09-06T11:11:53.986Z,32.50
2023-09-06T11:14:56.529Z,33.24
2023-09-06T11:18:00.519Z,32.69
2023-09-06T11:21:03.340Z,33.28
2023-09-06T11:24:06.377Z,33.41
2023-09-06T11:27:38.969Z,32.89
2023-09-06T11:30:43.145Z,32.97
2023-09-06T11:33:46.055Z,32.59
2023-09-06T11:36:49.933Z,33.33
2023-09-06T11:39:52.762Z,33.13
2023-09-06T11:43:05.598Z,33.83
2023-09-06T11:46:09.950Z,34.04
2023-09-06T11:49:15.877Z,33.93
2023-09-06T11:52:20.255Z,32.61
2023-09-06T11:55:23.120Z,32.25
2023-09-06T11:58:27.743Z,31.40
2023-09-06T12:01:33.660Z,31.97
2023-09-06T12:04:36.522Z,31.28
2023-09-06T12:07:39.324Z,31.69
2023-09-06T12:10:46.745Z,31.41
2023-09-06T12:13:49.853Z,32.74
2023-09-06T12:16:52.614Z,32.48
2023-09-06T12:20:00.124Z,32.13
2023-09-06T12:23:05.614Z,31.87
2023-09-06T12:26:08.044Z,32.59
2023-09-06T12:29:10.503Z,32.51
2023-09-06T12:32:13.330Z,32.40
2023-09-06T12:35:16.794Z,32.17
2023-09-06T12:38:19.351Z,32.37
2023-09-06T12:41:22.016Z,32.85
2023-09-06T12:44:24.608Z,32.44
2023-09-06T12:47:27.405Z,31.41
2023-09-06T12:50:29.931Z,31.49
2023-09-06T12:53:33.609Z,30.56
2023-09-06T12:56:36.451Z,30.59
2023-09-06T12:59:41.057Z,31.68
2023-09-06T13:02:43.936Z,30.23
2023-09-06T13:05:50.090Z,30.42
2023-09-06T13:08:53.051Z,30.63
2023-09-06T13:11:56.493Z,29.97
2023-09-06T13:15:00.154Z,31.28
2023-09-06T13:18:03.206Z,30.48
2023-09-06T13:21:06.962Z,30.52
2023-09-06T13:24:09.816Z,30.26
2023-09-06T13:27:12.595Z,31.09
2023-09-06T13:30:15.462Z,30.56
2023-09-06T13:33:17.923Z,31.21
2023-09-06T13:36:20.665Z,31.15
2023-09-06T13:39:23.182Z,30.39
2023-09-06T13:42:26.242Z,30.88
2023-09-06T13:45:30.747Z,30.51
2023-09-06T13:48:33.546Z,30.24
2023-09-06T13:51:36.912Z,29.29
2023-09-06T13:54:39.661Z,28.92
2023-09-06T13:57:42.391Z,28.43
2023-09-06T14:00:44.940Z,29.03
2023-09-06T14:03:47.484Z,28.68
2023-09-06T14:06:50.454Z,29.30
2023-09-06T14:09:52.989Z,29.13
2023-09-06T14:12:55.793Z,28.61
2023-09-06T14:15:59.524Z,28.83
2023-09-06T14:19:02.072Z,29.04
2023-09-06T14:22:20.661Z,28.81
2023-09-06T14:25:23.437Z,28.58
2023-09-06T14:28:26.272Z,28.55
2023-09-06T14:31:29.001Z,27.99
2023-09-06T14:34:31.839Z,28.04
2023-09-06T14:37:34.640Z,28.34
2023-09-06T14:40:42.450Z,27.83
2023-09-06T14:43:44.910Z,27.71
2023-09-06T14:46:49.458Z,27.83
2023-09-06T14:49:53.141Z,27.62
2023-09-06T14:52:56.205Z,27.83
2023-09-06T14:56:03.202Z,27.81
2023-09-06T14:59:06.042Z,27.96
2023-09-06T15:02:09.060Z,27.28
2023-09-06T15:05:11.866Z,26.92
2023-09-06T15:08:14.375Z,26.84
2023-09-06T15:11:16.877Z,26.88
2023-09-06T15:14:20.120Z,26.91
2023-09-06T15:17:23.690Z,27.10
2023-09-06T15:20:26.253Z,26.80
2023-09-06T15:23:29.582Z,26.87
2023-09-06T15:26:32.058Z,26.79
2023-09-06T15:29:34.612Z,27.02
2023-09-06T15:32:37.270Z,26.79
2023-09-06T15:35:39.986Z,26.66
2023-09-06T15:38:42.455Z,26.37
2023-09-06T15:41:45.385Z,26.59
2023-09-06T15:44:47.818Z,26.35
2023-09-06T15:47:51.225Z,26.27
2023-09-06T15:50:53.805Z,26.25
2023-09-06T15:53:56.381Z,26.17
2023-09-06T15:56:59.749Z,26.09
2023-09-06T16:00:12.800Z,25.82
2023-09-06T16:03:23.318Z,25.73
2023-09-06T16:06:27.117Z,25.59
2023-09-06T16:09:29.689Z,25.43
2023-09-06T16:12:32.697Z,25.27
2023-09-06T16:15:35.146Z,25.32
2023-09-06T16:18:37.996Z,25.34
2023-09-06T16:21:41.861Z,25.11
2023-09-06T16:24:44.328Z,24.96
2023-09-06T16:27:47.185Z,24.71
2023-09-06T16:30:49.933Z,24.55
2023-09-06T16:33:53.427Z,24.42
2023-09-06T16:36:56.074Z,24.25
2023-09-06T16:39:58.943Z,24.10
2023-09-06T16:43:01.667Z,23.97
2023-09-06T16:46:05.829Z,23.93
2023-09-06T16:49:08.496Z,24.06
2023-09-06T16:52:11.182Z,23.98
2023-09-06T16:55:15.014Z,23.87
2023-09-06T16:58:17.733Z,23.58
2023-09-06T17:01:21.958Z,23.51
2023-09-06T17:04:24.590Z,23.49
2023-09-06T17:07:27.125Z,23.48
2023-09-06T17:10:31.129Z,23.31
2023-09-06T17:13:33.624Z,23.21
2023-09-06T17:16:36.370Z,22.94
2023-09-06T17:19:38.857Z,22.93
2023-09-06T17:22:45.479Z,22.75
2023-09-06T17:25:50.800Z,22.49
2023-09-06T17:28:53.462Z,22.30
2023-09-06T17:31:55.910Z,22.17
2023-09-06T17:34:58.436Z,21.96
2023-09-06T17:38:08.879Z,21.62
2023-09-06T17:41:11.325Z,21.41
2023-09-06T17:44:13.921Z,21.23
2023-09-06T17:47:16.350Z,21.02
2023-09-06T17:50:19.368Z,20.98
2023-09-06T17:53:26.571Z,20.94
2023-09-06T17:56:30.389Z,20.74
2023-09-06T17:59:33.277Z,20.73
2023-09-06T18:02:39.035Z,20.62
2023-09-06T18:05:47.420Z,20.47
2023-09-06T18:08:51.946Z,20.23
2023-09-06T18:11:54.738Z,20.03
2023-09-06T18:14:59.930Z,19.89
2023-09-06T18:18:10.179Z,19.70
2023-09-06T18:21:15.072Z,19.56
2023-09-06T18:24:18.028Z,19.49
2023-09-06T18:27:20.742Z,19.42
2023-09-06T18:30:25.789Z,19.25
2023-09-06T18:33:29.213Z,19.12
2023-09-06T18:36:32.760Z,19.00
2023-09-06T18:39:35.289Z,18.94
2023-09-06T18:42:37.696Z,18.93
2023-09-06T18:45:41.965Z,19.00
2023-09-06T18:48:44.641Z,18.96
2023-09-06T18:51:47.239Z,18.92
2023-09-06T18:54:49.689Z,18.82
2023-09-06T18:58:04.863Z,18.83
2023-09-06T19:01:12.707Z,18.77
2023-09-06T19:04:15.191Z,18.65
2023-09-06T19:07:17.610Z,18.72
2023-09-06T19:10:20.046Z,18.68
2023-09-06T19:13:22.565Z,18.67
2023-09-06T19:16:26.100Z,18.60
2023-09-06T19:19:33.759Z,18.56
2023-09-06T19:22:36.230Z,18.52
2023-09-06T19:25:44.183Z,18.40
2023-09-06T19:28:46.794Z,18.35
2023-09-06T19:31:51.894Z,18.34
2023-09-06T19:34:54.356Z,18.39
2023-09-06T19:37:56.939Z,18.39
2023-09-06T19:40:59.502Z,18.39
2023-09-06T19:44:01.950Z,18.31
2023-09-06T19:47:04.654Z,18.23
2023-09-06T19:50:08.106Z,18.17
2023-09-06T19:53:10.762Z,17.96
2023-09-06T19:56:16.058Z,17.91
2023-09-06T19:59:18.667Z,17.79
2023-09-06T20:02:21.533Z,17.67
2023-09-06T20:05:25.413Z,17.65
2023-09-06T20:08:28.418Z,17.64
2023-09-06T20:11:33.103Z,17.53
2023-09-06T20:14:35.564Z,17.47
2023-09-06T20:17:38.303Z,17.41
2023-09-06T20:20:41.321Z,17.51
2023-09-06T20:23:44.464Z,17.53
2023-09-06T20:26:47.070Z,17.56
2023-09-06T20:29:49.620Z,17.51
2023-09-06T20:32:52.103Z,17.43
2023-09-06T20:35:58.608Z,17.39
2023-09-06T20:39:01.308Z,17.29
2023-09-06T20:42:06.317Z,17.17
2023-09-06T20:45:09.027Z,17.26
2023-09-06T20:48:12.943Z,17.12
2023-09-06T20:51:15.588Z,17.14
2023-09-06T20:54:17.991Z,17.05
2023-09-06T20:57:20.540Z,16.97
2023-09-06T21:00:23.872Z,16.98
2023-09-06T21:03:26.484Z,16.97
2023-09-06T21:06:29.017Z,16.87
2023-09-06T21:09:31.370Z,16.85
2023-09-06T21:12:36.286Z,16.87
2023-09-06T21:15:39.095Z,16.85
2023-09-06T21:18:41.687Z,16.85
2023-09-06T21:21:44.231Z,16.74
2023-09-06T21:24:46.717Z,16.61
2023-09-06T21:27:49.249Z,16.57
2023-09-06T21:30:51.773Z,16.60
2023-09-06T21:33:54.264Z,16.62
2023-09-06T21:36:56.924Z,16.52
2023-09-06T21:40:00.765Z,16.52
2023-09-06T21:43:15.994Z,16.42
2023-09-06T21:46:20.697Z,16.40
2023-09-06T21:49:23.148Z,16.33
2023-09-06T21:52:25.647Z,16.25
2023-09-06T21:55:28.206Z,16.03
2023-09-06T21:58:34.679Z,15.97
2023-09-06T22:01:52.194Z,16.14
2023-09-06T22:05:13.148Z,16.13
2023-09-06T22:08:34.050Z,16.04
2023-09-06T22:11:55.209Z,16.01
2023-09-06T22:14:59.249Z,15.91
2023-09-06T22:18:02.187Z,15.82
2023-09-06T22:21:05.543Z,15.88
2023-09-06T22:24:10.153Z,15.88
2023-09-06T22:27:12.557Z,15.79
2023-09-06T22:30:15.310Z,15.75
2023-09-06T22:33:17.818Z,15.77
2023-09-06T22:36:20.243Z,15.63
2023-09-06T22:39:22.670Z,15.72
2023-09-06T22:42:25.030Z,15.61
2023-09-06T22:45:28.576Z,15.67
2023-09-06T22:48:47.972Z,15.62
2023-09-06T22:51:53.509Z,15.63
2023-09-06T22:54:56.152Z,15.50
2023-09-06T22:57:59.348Z,15.55
2023-09-06T23:01:08.694Z,15.59
2023-09-06T23:04:12.364Z,15.53
2023-09-06T23:07:16.404Z,15.49
2023-09-06T23:10:20.956Z,15.43
2023-09-06T23:13:23.794Z,15.48
2023-09-06T23:16:26.343Z,15.35
2023-09-06T23:19:33.589Z,15.40
2023-09-06T23:22:42.069Z,15.37
2023-09-06T23:25:47.296Z,15.36
2023-09-06T23:28:50.058Z,15.24
2023-09-06T23:31:55.762Z,15.19
2023-09-06T23:34:59.361Z,15.15
2023-09-06T23:38:07.406Z,14.99
2023-09-06T23:41:12.786Z,15.12
2023-09-06T23:44:15.219Z,15.08
2023-09-06T23:47:17.700Z,15.12
2023-09-06T23:50:20.768Z,15.10
2023-09-06T23:53:26.225Z,15.06
2023-09-06T23:56:28.634Z,14.99
2023-09-06T23:59:31.288Z,14.88
